This is the latest recevied weather packets stored in our database for station/object F5NTS. If no packets are shown the sender has not sent any weather packets the latest 10 day(s).
| Time | Temp. | Humidity | Pressure | Rain* | Wind** | Luminosity | Snow |
|---|---|---|---|---|---|---|---|
| 1778180704 | 13.33° C | 69% | 1012.1 hPa | 0 mm | - | - | - |
| 1778179804 | 13.33° C | 67% | 1012.2 hPa | 0 mm | - | - | - |
| 1778172304 | 15.56° C | 58% | 1012.2 hPa | 0 mm | - | - | - |
| 1778172004 | 16.11° C | 58% | 1012.1 hPa | 0 mm | - | - | - |
| 1778171704 | 16.11° C | 58% | 1012.1 hPa | 0 mm | - | - | - |
| 1778171404 | 16.11° C | 58% | 1012.1 hPa | 0 mm | - | - | - |
| 1778170804 | 16.11° C | 58% | 1012.3 hPa | 0 mm | - | - | - |
| 1778169904 | 16.67° C | 59% | 1012.1 hPa | 0 mm | - | - | - |
| 1778169304 | 16.67° C | 59% | 1012.2 hPa | 0 mm | - | - | - |
| 1778167804 | 16.67° C | 59% | 1011.9 hPa | 0 mm | - | - | - |
| 1778161204 | 17.78° C | 59% | 1012.4 hPa | 0 mm | - | - | - |
| 1778160604 | 17.78° C | 58% | 1012.4 hPa | 0 mm | - | - | - |
| 1778160004 | 17.78° C | 58% | 1012.4 hPa | 0 mm | - | - | - |
| 1778157604 | 18.89° C | 61% | 1012.4 hPa | 0 mm | - | - | - |
| 1778157004 | 18.89° C | 63% | 1012.4 hPa | 0 mm | - | - | - |
| 1778151604 | 15.56° C | 72% | 1013.1 hPa | 0 mm | - | - | - |
| 1778150405 | 15° C | 73% | 1013 hPa | 0 mm | - | - | - |
| 1778149804 | 14.44° C | 73% | 1013 hPa | 0 mm | - | - | - |
| 1778148604 | 14.44° C | 75% | 1013.2 hPa | 0 mm | - | - | - |
| 1778147704 | 14.44° C | 75% | 1012.8 hPa | 0 mm | - | - | - |
| 1778145604 | 14.44° C | 81% | 1012.9 hPa | 0 mm | - | - | - |
| 1778140804 | 11.67° C | 95% | 1012.3 hPa | 0 mm | - | - | - |
| 1778138404 | 10.56° C | 95% | 1012.3 hPa | 0 mm | - | - | - |
| 1778138104 | 10.56° C | 95% | 1012.3 hPa | 0 mm | - | - | - |
| 1778137805 | 10° C | 95% | 1012.1 hPa | 0 mm | - | - | - |
* Rain latest hour (hover to see other rain measurements)
** Current wind speed in m/s (hover to see current wind gust speed)